sensor_id;sensor_type;location;lat;lon;timestamp;P1;durP1;ratioP1;P2;durP2;ratioP2
6280;SDS011;3173;48.204;11.612;2023-05-19T00:01:31;9.73;;;3.63;;
6280;SDS011;3173;48.204;11.612;2023-05-19T00:03:58;11.83;;;4.23;;
6280;SDS011;3173;48.204;11.612;2023-05-19T00:06:30;8.30;;;3.90;;
6280;SDS011;3173;48.204;11.612;2023-05-19T00:09:03;14.40;;;3.80;;
6280;SDS011;3173;48.204;11.612;2023-05-19T00:11:29;12.27;;;4.00;;
6280;SDS011;3173;48.204;11.612;2023-05-19T00:13:56;12.43;;;4.10;;
6280;SDS011;3173;48.204;11.612;2023-05-19T00:16:23;13.53;;;4.50;;
6280;SDS011;3173;48.204;11.612;2023-05-19T00:18:50;10.07;;;4.30;;
6280;SDS011;3173;48.204;11.612;2023-05-19T00:21:17;10.60;;;4.23;;
6280;SDS011;3173;48.204;11.612;2023-05-19T00:23:43;10.60;;;4.57;;
6280;SDS011;3173;48.204;11.612;2023-05-19T00:26:10;13.90;;;3.80;;
6280;SDS011;3173;48.204;11.612;2023-05-19T00:28:36;11.90;;;3.90;;
6280;SDS011;3173;48.204;11.612;2023-05-19T00:31:04;7.30;;;3.60;;
6280;SDS011;3173;48.204;11.612;2023-05-19T00:33:30;12.43;;;4.20;;
6280;SDS011;3173;48.204;11.612;2023-05-19T00:35:58;13.30;;;3.97;;
6280;SDS011;3173;48.204;11.612;2023-05-19T00:38:24;9.27;;;4.20;;
6280;SDS011;3173;48.204;11.612;2023-05-19T00:40:50;9.87;;;4.00;;
6280;SDS011;3173;48.204;11.612;2023-05-19T00:43:16;11.37;;;4.40;;
6280;SDS011;3173;48.204;11.612;2023-05-19T00:45:42;10.23;;;4.47;;
6280;SDS011;3173;48.204;11.612;2023-05-19T00:48:08;12.40;;;4.30;;
6280;SDS011;3173;48.204;11.612;2023-05-19T00:50:34;9.27;;;4.10;;
6280;SDS011;3173;48.204;11.612;2023-05-19T00:53:00;10.20;;;3.77;;
6280;SDS011;3173;48.204;11.612;2023-05-19T00:55:27;9.03;;;4.40;;
6280;SDS011;3173;48.204;11.612;2023-05-19T00:57:57;10.20;;;3.83;;
6280;SDS011;3173;48.204;11.612;2023-05-19T01:00:23;14.70;;;4.83;;
6280;SDS011;3173;48.204;11.612;2023-05-19T01:02:49;12.67;;;4.73;;
6280;SDS011;3173;48.204;11.612;2023-05-19T01:05:15;13.77;;;5.03;;
6280;SDS011;3173;48.204;11.612;2023-05-19T01:07:42;11.57;;;4.33;;
6280;SDS011;3173;48.204;11.612;2023-05-19T01:10:08;9.90;;;4.23;;
6280;SDS011;3173;48.204;11.612;2023-05-19T01:12:34;12.37;;;4.47;;
6280;SDS011;3173;48.204;11.612;2023-05-19T01:15:01;10.40;;;4.53;;
6280;SDS011;3173;48.204;11.612;2023-05-19T01:20:49;12.40;;;4.40;;
6280;SDS011;3173;48.204;11.612;2023-05-19T01:31:09;6.00;;;3.93;;
6280;SDS011;3173;48.204;11.612;2023-05-19T01:33:36;7.20;;;4.30;;
6280;SDS011;3173;48.204;11.612;2023-05-19T01:36:04;9.13;;;4.87;;
6280;SDS011;3173;48.204;11.612;2023-05-19T01:38:32;8.00;;;3.97;;
6280;SDS011;3173;48.204;11.612;2023-05-19T01:41:01;15.37;;;4.90;;
6280;SDS011;3173;48.204;11.612;2023-05-19T01:43:28;10.53;;;4.37;;
6280;SDS011;3173;48.204;11.612;2023-05-19T01:45:54;17.13;;;5.33;;
6280;SDS011;3173;48.204;11.612;2023-05-19T01:48:22;9.00;;;4.00;;
6280;SDS011;3173;48.204;11.612;2023-05-19T01:50:49;14.93;;;4.77;;
6280;SDS011;3173;48.204;11.612;2023-05-19T01:53:16;17.37;;;4.80;;
6280;SDS011;3173;48.204;11.612;2023-05-19T01:55:43;10.73;;;4.83;;
6280;SDS011;3173;48.204;11.612;2023-05-19T01:58:21;9.33;;;4.20;;
6280;SDS011;3173;48.204;11.612;2023-05-19T02:00:57;11.70;;;4.63;;
6280;SDS011;3173;48.204;11.612;2023-05-19T02:08:55;10.70;;;4.73;;
6280;SDS011;3173;48.204;11.612;2023-05-19T02:13:52;8.17;;;4.60;;
6280;SDS011;3173;48.204;11.612;2023-05-19T02:16:21;8.77;;;4.27;;
6280;SDS011;3173;48.204;11.612;2023-05-19T02:18:49;12.57;;;5.10;;
6280;SDS011;3173;48.204;11.612;2023-05-19T02:21:17;9.10;;;4.83;;
6280;SDS011;3173;48.204;11.612;2023-05-19T02:23:44;10.23;;;4.10;;
6280;SDS011;3173;48.204;11.612;2023-05-19T02:26:10;12.00;;;4.97;;
6280;SDS011;3173;48.204;11.612;2023-05-19T02:28:36;10.87;;;5.47;;
6280;SDS011;3173;48.204;11.612;2023-05-19T02:31:02;8.40;;;4.03;;
6280;SDS011;3173;48.204;11.612;2023-05-19T02:33:34;7.43;;;4.40;;
6280;SDS011;3173;48.204;11.612;2023-05-19T02:36:01;13.50;;;4.67;;
6280;SDS011;3173;48.204;11.612;2023-05-19T02:38:27;8.00;;;4.67;;
6280;SDS011;3173;48.204;11.612;2023-05-19T02:40:53;13.70;;;4.83;;
6280;SDS011;3173;48.204;11.612;2023-05-19T02:43:19;9.03;;;4.60;;
6280;SDS011;3173;48.204;11.612;2023-05-19T02:45:45;12.03;;;5.00;;
6280;SDS011;3173;48.204;11.612;2023-05-19T02:48:11;12.10;;;5.10;;
6280;SDS011;3173;48.204;11.612;2023-05-19T02:50:37;10.50;;;4.30;;
6280;SDS011;3173;48.204;11.612;2023-05-19T02:53:03;10.40;;;4.73;;
6280;SDS011;3173;48.204;11.612;2023-05-19T02:55:29;8.67;;;4.53;;
6280;SDS011;3173;48.204;11.612;2023-05-19T02:57:55;10.40;;;5.20;;
6280;SDS011;3173;48.204;11.612;2023-05-19T03:00:22;14.80;;;4.80;;
6280;SDS011;3173;48.204;11.612;2023-05-19T03:02:48;13.30;;;5.37;;
6280;SDS011;3173;48.204;11.612;2023-05-19T03:05:16;8.63;;;4.60;;
6280;SDS011;3173;48.204;11.612;2023-05-19T03:07:44;10.90;;;5.40;;
6280;SDS011;3173;48.204;11.612;2023-05-19T03:10:10;13.80;;;4.90;;
6280;SDS011;3173;48.204;11.612;2023-05-19T03:12:36;9.37;;;5.03;;
6280;SDS011;3173;48.204;11.612;2023-05-19T03:15:03;11.60;;;5.50;;
6280;SDS011;3173;48.204;11.612;2023-05-19T03:17:29;8.40;;;4.40;;
6280;SDS011;3173;48.204;11.612;2023-05-19T03:19:58;11.17;;;5.60;;
6280;SDS011;3173;48.204;11.612;2023-05-19T03:22:25;18.33;;;5.87;;
6280;SDS011;3173;48.204;11.612;2023-05-19T03:24:51;8.97;;;4.93;;
6280;SDS011;3173;48.204;11.612;2023-05-19T03:27:18;13.30;;;4.70;;
6280;SDS011;3173;48.204;11.612;2023-05-19T03:29:44;10.70;;;5.40;;
6280;SDS011;3173;48.204;11.612;2023-05-19T03:32:10;9.67;;;5.17;;
6280;SDS011;3173;48.204;11.612;2023-05-19T03:34:36;11.83;;;5.43;;
6280;SDS011;3173;48.204;11.612;2023-05-19T03:37:02;12.63;;;5.43;;
6280;SDS011;3173;48.204;11.612;2023-05-19T03:39:29;9.20;;;4.53;;
6280;SDS011;3173;48.204;11.612;2023-05-19T03:41:55;9.90;;;5.60;;
6280;SDS011;3173;48.204;11.612;2023-05-19T03:44:21;9.73;;;4.80;;
6280;SDS011;3173;48.204;11.612;2023-05-19T03:46:48;16.03;;;5.07;;
6280;SDS011;3173;48.204;11.612;2023-05-19T03:49:14;8.93;;;5.17;;
6280;SDS011;3173;48.204;11.612;2023-05-19T03:51:40;10.75;;;5.15;;
6280;SDS011;3173;48.204;11.612;2023-05-19T03:54:07;12.80;;;4.90;;
6280;SDS011;3173;48.204;11.612;2023-05-19T03:56:37;11.93;;;4.83;;
6280;SDS011;3173;48.204;11.612;2023-05-19T03:59:03;12.03;;;5.23;;
6280;SDS011;3173;48.204;11.612;2023-05-19T04:01:34;11.40;;;5.50;;
6280;SDS011;3173;48.204;11.612;2023-05-19T04:04:00;9.20;;;4.73;;
6280;SDS011;3173;48.204;11.612;2023-05-19T04:06:27;10.60;;;5.43;;
6280;SDS011;3173;48.204;11.612;2023-05-19T04:08:53;14.20;;;5.00;;
6280;SDS011;3173;48.204;11.612;2023-05-19T04:11:19;11.23;;;5.57;;
6280;SDS011;3173;48.204;11.612;2023-05-19T04:13:46;9.50;;;4.93;;
6280;SDS011;3173;48.204;11.612;2023-05-19T04:16:12;13.40;;;5.50;;
6280;SDS011;3173;48.204;11.612;2023-05-19T04:18:38;11.00;;;4.77;;
6280;SDS011;3173;48.204;11.612;2023-05-19T04:21:04;15.23;;;5.60;;
6280;SDS011;3173;48.204;11.612;2023-05-19T04:23:32;15.10;;;6.40;;
6280;SDS011;3173;48.204;11.612;2023-05-19T04:25:59;13.63;;;4.60;;
6280;SDS011;3173;48.204;11.612;2023-05-19T04:28:26;10.57;;;4.93;;
6280;SDS011;3173;48.204;11.612;2023-05-19T04:30:52;11.70;;;5.40;;
6280;SDS011;3173;48.204;11.612;2023-05-19T04:33:18;10.20;;;5.20;;
6280;SDS011;3173;48.204;11.612;2023-05-19T04:35:45;13.70;;;6.40;;
6280;SDS011;3173;48.204;11.612;2023-05-19T04:38:11;19.90;;;6.07;;
6280;SDS011;3173;48.204;11.612;2023-05-19T04:40:37;10.23;;;5.27;;
6280;SDS011;3173;48.204;11.612;2023-05-19T04:43:07;12.37;;;5.60;;
6280;SDS011;3173;48.204;11.612;2023-05-19T04:45:33;12.70;;;5.50;;
6280;SDS011;3173;48.204;11.612;2023-05-19T04:48:01;12.13;;;4.77;;
6280;SDS011;3173;48.204;11.612;2023-05-19T04:50:27;6.83;;;4.77;;
6280;SDS011;3173;48.204;11.612;2023-05-19T04:52:54;9.40;;;5.10;;
6280;SDS011;3173;48.204;11.612;2023-05-19T04:55:23;14.30;;;4.43;;
6280;SDS011;3173;48.204;11.612;2023-05-19T04:57:49;16.37;;;5.70;;
6280;SDS011;3173;48.204;11.612;2023-05-19T05:00:15;12.43;;;5.30;;
6280;SDS011;3173;48.204;11.612;2023-05-19T05:02:41;12.50;;;5.57;;
6280;SDS011;3173;48.204;11.612;2023-05-19T05:05:07;15.10;;;5.63;;
6280;SDS011;3173;48.204;11.612;2023-05-19T05:07:34;8.83;;;4.93;;
6280;SDS011;3173;48.204;11.612;2023-05-19T05:10:00;18.63;;;5.60;;
6280;SDS011;3173;48.204;11.612;2023-05-19T05:12:27;8.37;;;4.90;;
6280;SDS011;3173;48.204;11.612;2023-05-19T05:14:54;10.20;;;4.80;;
6280;SDS011;3173;48.204;11.612;2023-05-19T05:17:20;9.50;;;5.00;;
6280;SDS011;3173;48.204;11.612;2023-05-19T05:19:46;15.70;;;5.60;;
6280;SDS011;3173;48.204;11.612;2023-05-19T05:22:13;18.23;;;5.80;;
6280;SDS011;3173;48.204;11.612;2023-05-19T05:24:39;15.73;;;5.17;;
6280;SDS011;3173;48.204;11.612;2023-05-19T05:27:05;10.20;;;4.83;;
6280;SDS011;3173;48.204;11.612;2023-05-19T05:29:32;13.20;;;5.60;;
6280;SDS011;3173;48.204;11.612;2023-05-19T05:31:58;15.50;;;6.50;;
6280;SDS011;3173;48.204;11.612;2023-05-19T05:34:24;12.07;;;5.03;;
6280;SDS011;3173;48.204;11.612;2023-05-19T05:36:50;12.07;;;5.30;;
6280;SDS011;3173;48.204;11.612;2023-05-19T05:39:16;11.67;;;5.30;;
6280;SDS011;3173;48.204;11.612;2023-05-19T05:41:42;9.07;;;5.37;;
6280;SDS011;3173;48.204;11.612;2023-05-19T05:44:08;8.43;;;4.77;;
6280;SDS011;3173;48.204;11.612;2023-05-19T05:46:34;13.13;;;5.67;;
6280;SDS011;3173;48.204;11.612;2023-05-19T05:49:01;10.10;;;4.57;;
6280;SDS011;3173;48.204;11.612;2023-05-19T05:51:27;11.83;;;5.10;;
6280;SDS011;3173;48.204;11.612;2023-05-19T05:53:53;13.37;;;6.13;;
6280;SDS011;3173;48.204;11.612;2023-05-19T05:56:20;12.40;;;5.40;;
6280;SDS011;3173;48.204;11.612;2023-05-19T05:58:46;13.70;;;5.33;;
6280;SDS011;3173;48.204;11.612;2023-05-19T06:01:13;11.00;;;5.40;;
6280;SDS011;3173;48.204;11.612;2023-05-19T06:03:41;11.83;;;4.97;;
6280;SDS011;3173;48.204;11.612;2023-05-19T06:06:10;12.40;;;5.13;;
6280;SDS011;3173;48.204;11.612;2023-05-19T06:08:36;9.90;;;5.07;;
6280;SDS011;3173;48.204;11.612;2023-05-19T06:11:02;15.83;;;6.07;;
6280;SDS011;3173;48.204;11.612;2023-05-19T06:13:35;8.13;;;5.40;;
6280;SDS011;3173;48.204;11.612;2023-05-19T06:16:01;13.13;;;5.40;;
6280;SDS011;3173;48.204;11.612;2023-05-19T06:18:27;15.20;;;5.70;;
6280;SDS011;3173;48.204;11.612;2023-05-19T06:20:54;13.70;;;5.80;;
6280;SDS011;3173;48.204;11.612;2023-05-19T06:23:20;13.33;;;5.50;;
6280;SDS011;3173;48.204;11.612;2023-05-19T06:25:46;9.10;;;5.30;;
6280;SDS011;3173;48.204;11.612;2023-05-19T06:28:12;13.13;;;5.27;;
6280;SDS011;3173;48.204;11.612;2023-05-19T06:30:38;12.63;;;5.83;;
6280;SDS011;3173;48.204;11.612;2023-05-19T06:33:04;12.80;;;5.70;;
6280;SDS011;3173;48.204;11.612;2023-05-19T06:35:31;10.00;;;5.33;;
6280;SDS011;3173;48.204;11.612;2023-05-19T06:37:57;11.43;;;5.70;;
6280;SDS011;3173;48.204;11.612;2023-05-19T06:40:23;17.07;;;5.47;;
6280;SDS011;3173;48.204;11.612;2023-05-19T06:42:49;9.23;;;6.17;;
6280;SDS011;3173;48.204;11.612;2023-05-19T06:45:15;12.10;;;5.50;;
6280;SDS011;3173;48.204;11.612;2023-05-19T06:47:45;14.10;;;5.50;;
6280;SDS011;3173;48.204;11.612;2023-05-19T06:50:12;14.13;;;6.03;;
6280;SDS011;3173;48.204;11.612;2023-05-19T06:52:38;18.50;;;5.47;;
6280;SDS011;3173;48.204;11.612;2023-05-19T06:55:04;13.20;;;5.17;;
6280;SDS011;3173;48.204;11.612;2023-05-19T06:57:30;9.27;;;5.30;;
6280;SDS011;3173;48.204;11.612;2023-05-19T06:59:56;16.43;;;6.27;;
6280;SDS011;3173;48.204;11.612;2023-05-19T07:02:22;10.63;;;5.70;;
6280;SDS011;3173;48.204;11.612;2023-05-19T07:04:48;14.40;;;5.87;;
6280;SDS011;3173;48.204;11.612;2023-05-19T07:07:16;12.03;;;6.50;;
6280;SDS011;3173;48.204;11.612;2023-05-19T07:09:42;15.63;;;5.27;;
6280;SDS011;3173;48.204;11.612;2023-05-19T07:12:09;9.70;;;5.83;;
6280;SDS011;3173;48.204;11.612;2023-05-19T07:14:35;10.07;;;6.20;;
6280;SDS011;3173;48.204;11.612;2023-05-19T07:17:02;10.47;;;5.30;;
6280;SDS011;3173;48.204;11.612;2023-05-19T07:19:28;15.67;;;6.30;;
6280;SDS011;3173;48.204;11.612;2023-05-19T07:21:55;9.77;;;4.43;;
6280;SDS011;3173;48.204;11.612;2023-05-19T07:24:21;13.90;;;6.17;;
6280;SDS011;3173;48.204;11.612;2023-05-19T07:26:47;12.90;;;5.63;;
6280;SDS011;3173;48.204;11.612;2023-05-19T07:29:13;10.07;;;5.67;;
6280;SDS011;3173;48.204;11.612;2023-05-19T07:31:40;14.43;;;6.50;;
6280;SDS011;3173;48.204;11.612;2023-05-19T07:34:06;11.40;;;5.80;;
6280;SDS011;3173;48.204;11.612;2023-05-19T07:36:32;8.73;;;5.03;;
6280;SDS011;3173;48.204;11.612;2023-05-19T07:38:59;8.40;;;4.60;;
6280;SDS011;3173;48.204;11.612;2023-05-19T07:41:25;12.40;;;5.13;;
6280;SDS011;3173;48.204;11.612;2023-05-19T07:43:51;11.30;;;5.20;;
6280;SDS011;3173;48.204;11.612;2023-05-19T07:46:17;12.90;;;5.23;;
6280;SDS011;3173;48.204;11.612;2023-05-19T07:48:44;15.30;;;5.23;;
6280;SDS011;3173;48.204;11.612;2023-05-19T07:51:11;8.53;;;4.90;;
6280;SDS011;3173;48.204;11.612;2023-05-19T07:53:37;11.97;;;5.60;;
6280;SDS011;3173;48.204;11.612;2023-05-19T07:56:03;11.57;;;5.37;;
6280;SDS011;3173;48.204;11.612;2023-05-19T07:58:29;10.70;;;4.70;;
6280;SDS011;3173;48.204;11.612;2023-05-19T08:00:56;9.57;;;5.73;;
6280;SDS011;3173;48.204;11.612;2023-05-19T08:03:23;9.97;;;4.43;;
6280;SDS011;3173;48.204;11.612;2023-05-19T08:05:49;7.90;;;4.93;;
6280;SDS011;3173;48.204;11.612;2023-05-19T08:08:15;11.10;;;4.93;;
6280;SDS011;3173;48.204;11.612;2023-05-19T08:10:43;12.33;;;4.83;;
6280;SDS011;3173;48.204;11.612;2023-05-19T08:13:10;8.40;;;5.20;;
6280;SDS011;3173;48.204;11.612;2023-05-19T08:15:36;12.90;;;5.40;;
6280;SDS011;3173;48.204;11.612;2023-05-19T08:18:02;7.53;;;5.00;;
6280;SDS011;3173;48.204;11.612;2023-05-19T08:20:29;9.43;;;4.90;;
6280;SDS011;3173;48.204;11.612;2023-05-19T08:22:55;12.30;;;4.83;;
6280;SDS011;3173;48.204;11.612;2023-05-19T08:25:21;11.87;;;4.77;;
6280;SDS011;3173;48.204;11.612;2023-05-19T08:27:47;11.00;;;4.50;;
6280;SDS011;3173;48.204;11.612;2023-05-19T08:30:13;13.63;;;4.90;;
6280;SDS011;3173;48.204;11.612;2023-05-19T08:32:40;12.67;;;5.37;;
6280;SDS011;3173;48.204;11.612;2023-05-19T08:35:06;5.90;;;4.53;;
6280;SDS011;3173;48.204;11.612;2023-05-19T08:37:32;10.73;;;5.33;;
6280;SDS011;3173;48.204;11.612;2023-05-19T08:40:01;10.03;;;5.30;;
6280;SDS011;3173;48.204;11.612;2023-05-19T08:42:29;11.13;;;5.53;;
6280;SDS011;3173;48.204;11.612;2023-05-19T08:44:57;9.87;;;4.43;;
6280;SDS011;3173;48.204;11.612;2023-05-19T08:47:23;6.93;;;4.80;;
6280;SDS011;3173;48.204;11.612;2023-05-19T08:49:51;8.10;;;4.33;;
6280;SDS011;3173;48.204;11.612;2023-05-19T08:52:31;9.63;;;4.57;;
6280;SDS011;3173;48.204;11.612;2023-05-19T08:55:05;10.07;;;4.43;;
6280;SDS011;3173;48.204;11.612;2023-05-19T08:57:34;7.70;;;4.50;;
6280;SDS011;3173;48.204;11.612;2023-05-19T09:00:01;8.70;;;5.83;;
6280;SDS011;3173;48.204;11.612;2023-05-19T09:02:30;8.53;;;5.00;;
6280;SDS011;3173;48.204;11.612;2023-05-19T09:04:57;13.23;;;5.03;;
6280;SDS011;3173;48.204;11.612;2023-05-19T09:07:23;12.07;;;4.90;;
6280;SDS011;3173;48.204;11.612;2023-05-19T09:09:50;13.47;;;4.47;;
6280;SDS011;3173;48.204;11.612;2023-05-19T09:12:16;11.30;;;5.83;;
6280;SDS011;3173;48.204;11.612;2023-05-19T09:14:42;6.30;;;4.83;;
6280;SDS011;3173;48.204;11.612;2023-05-19T09:17:08;8.87;;;5.20;;
6280;SDS011;3173;48.204;11.612;2023-05-19T09:19:35;8.50;;;4.90;;
6280;SDS011;3173;48.204;11.612;2023-05-19T09:22:01;9.90;;;5.40;;
6280;SDS011;3173;48.204;11.612;2023-05-19T09:24:27;9.00;;;4.60;;
6280;SDS011;3173;48.204;11.612;2023-05-19T09:26:54;5.80;;;5.10;;
6280;SDS011;3173;48.204;11.612;2023-05-19T09:29:21;10.27;;;5.70;;
6280;SDS011;3173;48.204;11.612;2023-05-19T09:34:14;9.17;;;4.70;;
6280;SDS011;3173;48.204;11.612;2023-05-19T09:36:40;8.27;;;5.23;;
6280;SDS011;3173;48.204;11.612;2023-05-19T09:39:13;10.00;;;5.30;;
6280;SDS011;3173;48.204;11.612;2023-05-19T09:41:40;6.83;;;4.83;;
6280;SDS011;3173;48.204;11.612;2023-05-19T09:44:06;8.13;;;5.33;;
6280;SDS011;3173;48.204;11.612;2023-05-19T09:46:32;7.17;;;5.40;;
6280;SDS011;3173;48.204;11.612;2023-05-19T09:49:07;8.63;;;4.63;;
6280;SDS011;3173;48.204;11.612;2023-05-19T09:51:34;7.37;;;4.93;;
6280;SDS011;3173;48.204;11.612;2023-05-19T09:54:03;10.17;;;4.63;;
6280;SDS011;3173;48.204;11.612;2023-05-19T09:56:35;9.90;;;4.80;;
6280;SDS011;3173;48.204;11.612;2023-05-19T09:59:03;11.93;;;5.40;;
6280;SDS011;3173;48.204;11.612;2023-05-19T10:01:30;8.80;;;5.23;;
6280;SDS011;3173;48.204;11.612;2023-05-19T10:03:57;6.33;;;4.73;;
6280;SDS011;3173;48.204;11.612;2023-05-19T10:06:25;8.00;;;4.90;;
6280;SDS011;3173;48.204;11.612;2023-05-19T10:08:51;12.70;;;5.60;;
6280;SDS011;3173;48.204;11.612;2023-05-19T10:11:18;13.83;;;6.00;;
6280;SDS011;3173;48.204;11.612;2023-05-19T10:13:45;7.33;;;5.37;;
6280;SDS011;3173;48.204;11.612;2023-05-19T10:16:12;12.57;;;5.57;;
6280;SDS011;3173;48.204;11.612;2023-05-19T10:18:40;15.10;;;5.70;;
6280;SDS011;3173;48.204;11.612;2023-05-19T10:21:06;8.40;;;5.37;;
6280;SDS011;3173;48.204;11.612;2023-05-19T10:23:33;10.57;;;6.20;;
6280;SDS011;3173;48.204;11.612;2023-05-19T10:26:00;7.37;;;5.13;;
6280;SDS011;3173;48.204;11.612;2023-05-19T10:28:30;11.97;;;5.33;;
6280;SDS011;3173;48.204;11.612;2023-05-19T10:30:59;9.60;;;5.70;;
6280;SDS011;3173;48.204;11.612;2023-05-19T10:36:18;8.90;;;6.07;;
6280;SDS011;3173;48.204;11.612;2023-05-19T10:38:52;10.17;;;6.37;;
6280;SDS011;3173;48.204;11.612;2023-05-19T10:46:40;9.20;;;6.40;;
6280;SDS011;3173;48.204;11.612;2023-05-19T10:49:07;13.73;;;7.20;;
6280;SDS011;3173;48.204;11.612;2023-05-19T10:51:33;9.13;;;6.03;;
6280;SDS011;3173;48.204;11.612;2023-05-19T10:54:00;7.93;;;5.20;;
6280;SDS011;3173;48.204;11.612;2023-05-19T10:56:28;9.00;;;6.80;;
6280;SDS011;3173;48.204;11.612;2023-05-19T10:58:55;10.17;;;7.20;;
6280;SDS011;3173;48.204;11.612;2023-05-19T11:01:21;10.30;;;6.90;;
6280;SDS011;3173;48.204;11.612;2023-05-19T11:03:52;11.73;;;6.37;;
6280;SDS011;3173;48.204;11.612;2023-05-19T11:06:25;11.80;;;7.03;;
6280;SDS011;3173;48.204;11.612;2023-05-19T11:08:56;13.40;;;7.00;;
6280;SDS011;3173;48.204;11.612;2023-05-19T11:11:22;12.30;;;7.00;;
6280;SDS011;3173;48.204;11.612;2023-05-19T11:13:52;9.53;;;7.10;;
6280;SDS011;3173;48.204;11.612;2023-05-19T11:16:28;13.30;;;6.77;;
6280;SDS011;3173;48.204;11.612;2023-05-19T11:18:54;14.93;;;6.93;;
6280;SDS011;3173;48.204;11.612;2023-05-19T11:21:21;11.10;;;6.90;;
6280;SDS011;3173;48.204;11.612;2023-05-19T11:23:47;10.57;;;7.20;;
6280;SDS011;3173;48.204;11.612;2023-05-19T11:26:13;10.73;;;6.43;;
6280;SDS011;3173;48.204;11.612;2023-05-19T11:28:39;15.20;;;7.03;;
6280;SDS011;3173;48.204;11.612;2023-05-19T11:31:06;9.10;;;6.63;;
6280;SDS011;3173;48.204;11.612;2023-05-19T11:33:34;11.10;;;7.50;;
6280;SDS011;3173;48.204;11.612;2023-05-19T11:36:01;21.13;;;7.73;;
6280;SDS011;3173;48.204;11.612;2023-05-19T11:38:27;7.90;;;6.50;;
6280;SDS011;3173;48.204;11.612;2023-05-19T11:40:54;8.83;;;7.00;;
6280;SDS011;3173;48.204;11.612;2023-05-19T11:43:21;11.47;;;6.90;;
6280;SDS011;3173;48.204;11.612;2023-05-19T11:45:48;9.00;;;6.80;;
6280;SDS011;3173;48.204;11.612;2023-05-19T11:48:14;11.50;;;6.87;;
6280;SDS011;3173;48.204;11.612;2023-05-19T11:50:41;11.03;;;6.67;;
6280;SDS011;3173;48.204;11.612;2023-05-19T11:53:11;9.73;;;6.90;;
6280;SDS011;3173;48.204;11.612;2023-05-19T11:55:41;11.63;;;7.50;;
6280;SDS011;3173;48.204;11.612;2023-05-19T11:58:10;11.73;;;7.00;;
6280;SDS011;3173;48.204;11.612;2023-05-19T12:00:40;14.00;;;8.53;;
6280;SDS011;3173;48.204;11.612;2023-05-19T12:03:06;12.60;;;7.20;;
6280;SDS011;3173;48.204;11.612;2023-05-19T12:05:34;11.10;;;7.60;;
6280;SDS011;3173;48.204;11.612;2023-05-19T12:08:01;15.33;;;7.80;;
6280;SDS011;3173;48.204;11.612;2023-05-19T12:10:28;18.73;;;7.50;;
6280;SDS011;3173;48.204;11.612;2023-05-19T12:12:54;11.23;;;8.00;;
6280;SDS011;3173;48.204;11.612;2023-05-19T12:15:21;12.13;;;8.57;;
6280;SDS011;3173;48.204;11.612;2023-05-19T12:17:48;18.50;;;15.23;;
6280;SDS011;3173;48.204;11.612;2023-05-19T12:20:15;11.10;;;8.53;;
6280;SDS011;3173;48.204;11.612;2023-05-19T12:22:41;11.87;;;8.20;;
6280;SDS011;3173;48.204;11.612;2023-05-19T12:25:08;13.57;;;7.83;;
6280;SDS011;3173;48.204;11.612;2023-05-19T12:27:35;12.10;;;8.77;;
6280;SDS011;3173;48.204;11.612;2023-05-19T12:30:02;11.10;;;8.40;;
6280;SDS011;3173;48.204;11.612;2023-05-19T12:32:29;12.00;;;8.07;;
6280;SDS011;3173;48.204;11.612;2023-05-19T12:34:55;10.60;;;8.00;;
6280;SDS011;3173;48.204;11.612;2023-05-19T12:37:21;12.27;;;7.33;;
6280;SDS011;3173;48.204;11.612;2023-05-19T12:39:47;19.00;;;10.90;;
6280;SDS011;3173;48.204;11.612;2023-05-19T12:42:14;15.03;;;8.67;;
6280;SDS011;3173;48.204;11.612;2023-05-19T12:44:45;17.70;;;10.57;;
6280;SDS011;3173;48.204;11.612;2023-05-19T12:47:12;11.10;;;8.03;;
6280;SDS011;3173;48.204;11.612;2023-05-19T12:52:23;12.13;;;8.00;;
6280;SDS011;3173;48.204;11.612;2023-05-19T12:54:49;11.57;;;8.33;;
6280;SDS011;3173;48.204;11.612;2023-05-19T12:57:17;11.93;;;9.20;;
6280;SDS011;3173;48.204;11.612;2023-05-19T12:59:43;9.90;;;7.23;;
6280;SDS011;3173;48.204;11.612;2023-05-19T13:02:09;15.20;;;8.23;;
6280;SDS011;3173;48.204;11.612;2023-05-19T13:04:34;12.50;;;8.23;;
6280;SDS011;3173;48.204;11.612;2023-05-19T13:07:00;12.33;;;8.67;;
6280;SDS011;3173;48.204;11.612;2023-05-19T13:09:26;14.60;;;7.57;;
6280;SDS011;3173;48.204;11.612;2023-05-19T13:11:53;15.80;;;6.60;;
6280;SDS011;3173;48.204;11.612;2023-05-19T13:14:20;13.20;;;7.23;;
6280;SDS011;3173;48.204;11.612;2023-05-19T13:16:47;11.43;;;6.80;;
6280;SDS011;3173;48.204;11.612;2023-05-19T13:19:13;12.27;;;7.43;;
6280;SDS011;3173;48.204;11.612;2023-05-19T13:21:39;11.43;;;6.90;;
6280;SDS011;3173;48.204;11.612;2023-05-19T13:24:06;12.20;;;7.30;;
6280;SDS011;3173;48.204;11.612;2023-05-19T13:26:32;12.73;;;7.97;;
6280;SDS011;3173;48.204;11.612;2023-05-19T13:28:59;8.93;;;7.20;;
6280;SDS011;3173;48.204;11.612;2023-05-19T13:31:26;15.70;;;6.60;;
6280;SDS011;3173;48.204;11.612;2023-05-19T13:33:52;10.17;;;7.00;;
6280;SDS011;3173;48.204;11.612;2023-05-19T13:36:18;11.77;;;7.50;;
6280;SDS011;3173;48.204;11.612;2023-05-19T13:38:44;15.67;;;6.77;;
6280;SDS011;3173;48.204;11.612;2023-05-19T13:41:11;9.50;;;6.57;;
6280;SDS011;3173;48.204;11.612;2023-05-19T13:43:38;11.77;;;7.10;;
6280;SDS011;3173;48.204;11.612;2023-05-19T13:46:04;14.60;;;7.67;;
6280;SDS011;3173;48.204;11.612;2023-05-19T13:48:30;11.03;;;7.77;;
6280;SDS011;3173;48.204;11.612;2023-05-19T13:50:56;12.10;;;8.13;;
6280;SDS011;3173;48.204;11.612;2023-05-19T13:53:23;9.47;;;7.60;;
6280;SDS011;3173;48.204;11.612;2023-05-19T13:55:50;9.70;;;6.87;;
6280;SDS011;3173;48.204;11.612;2023-05-19T13:58:19;14.97;;;8.77;;
6280;SDS011;3173;48.204;11.612;2023-05-19T14:00:45;12.23;;;7.40;;
6280;SDS011;3173;48.204;11.612;2023-05-19T14:03:11;10.83;;;7.20;;
6280;SDS011;3173;48.204;11.612;2023-05-19T14:05:39;9.83;;;7.20;;
6280;SDS011;3173;48.204;11.612;2023-05-19T14:08:05;9.77;;;7.30;;
6280;SDS011;3173;48.204;11.612;2023-05-19T14:10:31;10.97;;;6.90;;
6280;SDS011;3173;48.204;11.612;2023-05-19T14:12:58;12.90;;;7.87;;
6280;SDS011;3173;48.204;11.612;2023-05-19T14:15:24;10.33;;;6.53;;
6280;SDS011;3173;48.204;11.612;2023-05-19T14:17:50;10.57;;;6.93;;
6280;SDS011;3173;48.204;11.612;2023-05-19T14:20:20;8.83;;;7.20;;
6280;SDS011;3173;48.204;11.612;2023-05-19T14:22:46;9.43;;;7.33;;
6280;SDS011;3173;48.204;11.612;2023-05-19T14:25:12;11.57;;;8.07;;
6280;SDS011;3173;48.204;11.612;2023-05-19T14:27:38;8.03;;;7.00;;
6280;SDS011;3173;48.204;11.612;2023-05-19T14:30:05;10.97;;;7.30;;
6280;SDS011;3173;48.204;11.612;2023-05-19T14:32:31;9.47;;;7.07;;
6280;SDS011;3173;48.204;11.612;2023-05-19T14:34:57;9.40;;;7.20;;
6280;SDS011;3173;48.204;11.612;2023-05-19T14:37:23;8.60;;;5.90;;
6280;SDS011;3173;48.204;11.612;2023-05-19T14:39:52;7.30;;;6.10;;
6280;SDS011;3173;48.204;11.612;2023-05-19T14:42:19;8.83;;;6.37;;
6280;SDS011;3173;48.204;11.612;2023-05-19T14:44:45;7.53;;;5.70;;
6280;SDS011;3173;48.204;11.612;2023-05-19T14:47:11;8.50;;;6.13;;
6280;SDS011;3173;48.204;11.612;2023-05-19T14:49:37;10.77;;;6.50;;
6280;SDS011;3173;48.204;11.612;2023-05-19T14:52:04;12.33;;;6.53;;
6280;SDS011;3173;48.204;11.612;2023-05-19T14:54:30;8.90;;;5.97;;
6280;SDS011;3173;48.204;11.612;2023-05-19T14:56:56;9.53;;;6.73;;
6280;SDS011;3173;48.204;11.612;2023-05-19T14:59:22;16.30;;;6.53;;
6280;SDS011;3173;48.204;11.612;2023-05-19T15:01:48;8.53;;;7.00;;
6280;SDS011;3173;48.204;11.612;2023-05-19T15:04:14;8.20;;;5.77;;
6280;SDS011;3173;48.204;11.612;2023-05-19T15:06:40;11.30;;;6.80;;
6280;SDS011;3173;48.204;11.612;2023-05-19T15:09:06;8.70;;;6.50;;
6280;SDS011;3173;48.204;11.612;2023-05-19T15:11:33;8.47;;;5.33;;
6280;SDS011;3173;48.204;11.612;2023-05-19T15:13:59;10.23;;;6.30;;
6280;SDS011;3173;48.204;11.612;2023-05-19T15:16:25;14.07;;;6.47;;
6280;SDS011;3173;48.204;11.612;2023-05-19T15:18:51;7.80;;;5.63;;
6280;SDS011;3173;48.204;11.612;2023-05-19T15:21:17;8.13;;;6.20;;
6280;SDS011;3173;48.204;11.612;2023-05-19T15:23:43;9.13;;;5.33;;